Time;durP1;ratioP1;P1;durP2;ratioP2;P2;SDS_P1;SDS_P2;PMS_P1;PMS_P2;Temp;Humidity;BMP_temperature;BMP_pressure;BME280_temperature;BME280_humidity;BME280_pressure;Samples;Min_cycle;Max_cycle;Signal;HPM_P1;HPM_P2
2022/12/28 00:02:16;;;;;;;;;;;;;;;8.15;41.76;100827.25;4356641;32;34041;-70
2022/12/28 00:04:44;;;;;;;;;;;;;;;8.19;41.33;100830.66;4353410;32;33451;-70
2022/12/28 00:07:12;;;;;;;;;;;;;;;8.30;41.14;100823.00;4358235;32;33743;-70
2022/12/28 00:09:39;;;;;;;;;;;;;;;8.41;40.83;100828.72;4355926;32;33735;-71
2022/12/28 00:12:06;;;;;;;;;;;;;;;8.69;39.79;100828.22;4353115;32;35833;-70
2022/12/28 00:14:33;;;;;;;;;;;;;;;8.11;40.67;100828.34;4359167;32;34213;-70
2022/12/28 00:17:01;;;;;;;;;;;;;;;8.18;40.54;100829.78;4358492;32;34613;-70
2022/12/28 00:19:29;;;;;;;;;;;;;;;8.15;41.02;100830.81;4371661;32;33804;-70
2022/12/28 00:21:56;;;;;;;;;;;;;;;8.22;40.47;100836.72;4361151;32;34222;-70
2022/12/28 00:24:24;;;;;;;;;;;;;;;8.04;40.80;100833.09;4355570;32;33265;-70
2022/12/28 00:26:51;;;;;;;;;;;;;;;7.31;42.56;100831.13;4344722;32;33724;-70
2022/12/28 00:29:19;;;;;;;;;;;;;;;7.57;42.54;100836.13;4356896;32;33771;-71
2022/12/28 00:31:46;;;;;;;;;;;;;;;7.65;42.11;100836.66;4359595;32;35249;-70
2022/12/28 00:34:14;;;;;;;;;;;;;;;7.67;41.74;100837.47;4358023;32;34185;-71
2022/12/28 00:36:41;;;;;;;;;;;;;;;7.69;42.02;100827.59;4351912;32;32993;-71
2022/12/28 00:39:28;;;;;;;;;;;;;;;8.02;40.99;100826.09;4348249;32;34301;-70
2022/12/28 00:41:56;;;;;;;;;;;;;;;7.96;41.42;100835.28;4359975;32;34127;-70
2022/12/28 00:44:23;;;;;;;;;;;;;;;7.48;42.91;100839.25;4355819;32;35394;-69
2022/12/28 00:46:50;;;;;;;;;;;;;;;7.83;41.46;100847.41;4356340;32;34389;-69
2022/12/28 00:49:18;;;;;;;;;;;;;;;7.60;42.00;100838.66;4359427;32;34098;-71
2022/12/28 00:51:45;;;;;;;;;;;;;;;7.89;41.62;100839.12;4356170;32;35016;-71
2022/12/28 00:54:12;;;;;;;;;;;;;;;7.75;41.63;100841.59;4356867;32;35101;-72
2022/12/28 00:56:41;;;;;;;;;;;;;;;7.85;41.71;100848.22;4356985;32;31729;-72
2022/12/28 00:59:09;;;;;;;;;;;;;;;7.93;41.23;100852.28;4339139;32;33918;-72
2022/12/28 01:01:37;;;;;;;;;;;;;;;7.98;41.25;100856.53;4357002;32;35176;-70
2022/12/28 01:04:04;;;;;;;;;;;;;;;7.81;41.75;100854.63;4357466;32;34532;-71
2022/12/28 01:06:31;;;;;;;;;;;;;;;7.97;41.60;100861.00;4358246;32;32086;-71
2022/12/28 01:08:59;;;;;;;;;;;;;;;8.02;41.25;100858.97;4357361;32;34279;-70
2022/12/28 01:11:27;;;;;;;;;;;;;;;8.13;41.09;100858.47;4361177;32;34606;-70
2022/12/28 01:13:56;;;;;;;;;;;;;;;7.80;41.65;100860.87;4357963;32;34296;-70
2022/12/28 01:16:33;;;;;;;;;;;;;;;7.64;41.82;100861.59;4353892;32;33461;-70
2022/12/28 01:19:02;;;;;;;;;;;;;;;7.64;41.91;100858.94;4356404;32;35104;-70
2022/12/28 01:21:31;;;;;;;;;;;;;;;7.62;42.44;100867.94;4356061;32;33915;-70
2022/12/28 01:23:59;;;;;;;;;;;;;;;7.65;41.98;100862.47;4352369;32;35340;-70
2022/12/28 01:26:27;;;;;;;;;;;;;;;7.76;41.68;100864.63;4350901;32;33721;-70
2022/12/28 01:28:55;;;;;;;;;;;;;;;7.85;41.44;100870.41;4353795;32;34100;-70
2022/12/28 01:31:22;;;;;;;;;;;;;;;7.84;41.51;100867.81;4356312;32;34061;-70
2022/12/28 01:33:49;;;;;;;;;;;;;;;7.69;42.20;100874.69;4353514;32;34255;-70
2022/12/28 01:36:21;;;;;;;;;;;;;;;7.49;42.57;100872.06;4354054;32;33491;-70
2022/12/28 01:38:51;;;;;;;;;;;;;;;7.48;42.21;100868.53;4350280;32;34229;-67
2022/12/28 01:41:19;;;;;;;;;;;;;;;7.39;42.62;100867.16;4357214;32;34003;-67
2022/12/28 01:44:06;;;;;;;;;;;;;;;7.43;43.03;100863.41;4356079;32;34347;-68
2022/12/28 01:46:36;;;;;;;;;;;;;;;7.19;43.27;100867.13;4358214;32;33387;-68
2022/12/28 01:49:23;;;;;;;;;;;;;;;7.18;42.91;100868.06;4347517;32;34365;-68
2022/12/28 01:51:55;;;;;;;;;;;;;;;7.15;42.71;100850.41;4355581;32;34240;-68
2022/12/28 01:54:23;;;;;;;;;;;;;;;6.73;44.35;100845.97;4341497;32;33223;-68
2022/12/28 01:56:50;;;;;;;;;;;;;;;6.83;44.08;100854.44;4354066;32;34552;-69
2022/12/28 01:59:18;;;;;;;;;;;;;;;7.03;43.48;100848.31;4356530;32;34351;-68
2022/12/28 02:01:45;;;;;;;;;;;;;;;7.24;43.39;100842.03;4356537;32;34281;-68
2022/12/28 02:04:13;;;;;;;;;;;;;;;7.46;42.58;100833.97;4358396;32;33152;-69
2022/12/28 02:06:40;;;;;;;;;;;;;;;7.27;43.63;100837.50;4357169;32;33574;-68
2022/12/28 02:09:15;;;;;;;;;;;;;;;7.39;43.31;100835.19;4357507;32;35905;-69
2022/12/28 02:11:43;;;;;;;;;;;;;;;7.56;42.99;100825.56;4358163;32;32450;-69
2022/12/28 02:14:10;;;;;;;;;;;;;;;7.73;42.61;100828.31;4353574;32;35189;-69
2022/12/28 02:16:38;;;;;;;;;;;;;;;7.84;42.03;100823.37;4349258;32;33113;-68
2022/12/28 02:19:07;;;;;;;;;;;;;;;7.82;42.30;100822.56;4359806;32;35025;-68
2022/12/28 02:21:47;;;;;;;;;;;;;;;7.82;42.64;100822.56;4353611;32;35268;-68
2022/12/28 02:24:30;;;;;;;;;;;;;;;7.69;43.00;100819.59;4346080;32;34564;-68
2022/12/28 02:27:16;;;;;;;;;;;;;;;7.89;41.96;100817.81;4354182;32;33566;-68
2022/12/28 02:29:52;;;;;;;;;;;;;;;7.72;41.97;100829.25;4356316;32;34015;-68
2022/12/28 02:32:38;;;;;;;;;;;;;;;7.84;41.15;100831.38;4350501;32;35188;-68
2022/12/28 02:35:07;;;;;;;;;;;;;;;8.00;40.45;100828.84;4356213;32;34261;-68
2022/12/28 02:37:47;;;;;;;;;;;;;;;7.96;41.04;100827.28;4352735;32;34608;-68
2022/12/28 02:40:17;;;;;;;;;;;;;;;7.89;41.08;100823.16;4358334;32;32434;-68
2022/12/28 02:42:44;;;;;;;;;;;;;;;7.93;41.14;100822.94;4345599;32;34241;-67
2022/12/28 02:51:16;;;;;;;;;;;;;;;7.53;42.06;100825.69;4357448;32;34331;-68
2022/12/28 02:53:50;;;;;;;;;;;;;;;7.49;41.85;100824.13;4352208;32;35276;-67
2022/12/28 02:56:17;;;;;;;;;;;;;;;7.46;41.98;100830.44;4353437;32;34424;-67
2022/12/28 02:58:56;;;;;;;;;;;;;;;7.20;42.54;100820.94;4356612;32;33981;-67
2022/12/28 03:01:42;;;;;;;;;;;;;;;7.32;42.28;100824.84;4357709;32;32821;-67
2022/12/28 03:04:18;;;;;;;;;;;;;;;7.23;42.92;100821.66;4355518;32;32595;-68
2022/12/28 03:10:12;;;;;;;;;;;;;;;7.07;43.47;100828.59;4352245;32;32442;-68
2022/12/28 03:13:02;;;;;;;;;;;;;;;7.07;43.47;100817.09;4330466;32;33143;-68
2022/12/28 03:15:32;;;;;;;;;;;;;;;7.37;42.32;100821.06;4340939;32;33857;-68
2022/12/28 03:31:55;;;;;;;;;;;;;;;6.89;43.82;100808.09;4337943;32;33538;-68
2022/12/28 03:34:22;;;;;;;;;;;;;;;6.84;43.37;100802.97;4351832;32;32503;-67
2022/12/28 03:37:04;;;;;;;;;;;;;;;6.70;43.76;100795.53;4353686;32;33985;-67
2022/12/28 03:39:36;;;;;;;;;;;;;;;6.71;43.74;100791.97;4344970;32;34556;-67
2022/12/28 03:45:21;;;;;;;;;;;;;;;6.68;44.28;100791.25;4360629;32;33796;-67
2022/12/28 03:48:08;;;;;;;;;;;;;;;6.94;43.50;100782.16;4358788;32;34273;-67
2022/12/28 03:50:36;;;;;;;;;;;;;;;6.99;43.28;100774.81;4354540;32;35502;-67
2022/12/28 03:53:05;;;;;;;;;;;;;;;6.83;43.93;100782.59;4354828;32;33841;-67
2022/12/28 03:55:34;;;;;;;;;;;;;;;6.85;43.73;100779.87;4359009;32;32850;-67
2022/12/28 03:58:02;;;;;;;;;;;;;;;6.77;43.64;100764.22;4356611;32;34687;-67
2022/12/28 04:00:29;;;;;;;;;;;;;;;6.64;43.69;100769.19;4353198;32;34363;-68
2022/12/28 04:02:57;;;;;;;;;;;;;;;6.52;44.09;100767.06;4353887;32;32993;-67
2022/12/28 04:05:24;;;;;;;;;;;;;;;6.57;43.71;100762.41;4359535;32;34278;-67
2022/12/28 04:07:52;;;;;;;;;;;;;;;6.61;43.82;100761.34;4357969;32;33320;-67
2022/12/28 04:10:20;;;;;;;;;;;;;;;6.74;43.38;100759.91;4358633;32;34425;-67
2022/12/28 04:12:48;;;;;;;;;;;;;;;6.69;43.70;100751.25;4359630;32;33446;-68
2022/12/28 04:15:16;;;;;;;;;;;;;;;6.54;44.29;100755.41;4359842;32;32295;-68
2022/12/28 04:17:44;;;;;;;;;;;;;;;6.45;44.75;100750.50;4357889;32;34351;-68
2022/12/28 04:20:11;;;;;;;;;;;;;;;6.72;43.92;100745.81;4359374;32;34377;-68
2022/12/28 04:22:38;;;;;;;;;;;;;;;6.83;43.30;100748.00;4357887;32;33382;-68
2022/12/28 04:25:06;;;;;;;;;;;;;;;6.68;44.00;100738.03;4357798;32;34898;-66
2022/12/28 04:27:34;;;;;;;;;;;;;;;6.84;43.71;100740.88;4352818;32;34449;-66
2022/12/28 04:30:01;;;;;;;;;;;;;;;6.98;43.33;100738.50;4359592;32;34330;-66
2022/12/28 04:32:30;;;;;;;;;;;;;;;6.83;44.11;100739.16;4359781;32;34655;-67
2022/12/28 04:34:57;;;;;;;;;;;;;;;6.69;44.31;100739.75;4358990;32;32872;-66
2022/12/28 04:37:26;;;;;;;;;;;;;;;7.03;42.96;100738.28;4357472;32;34377;-66
2022/12/28 04:39:53;;;;;;;;;;;;;;;7.02;42.83;100731.22;4358067;32;33052;-66
2022/12/28 04:42:24;;;;;;;;;;;;;;;6.69;43.57;100729.97;4359361;32;33999;-66
2022/12/28 04:44:51;;;;;;;;;;;;;;;6.87;43.06;100731.00;4355369;32;34314;-66
2022/12/28 04:47:19;;;;;;;;;;;;;;;6.56;43.87;100747.38;4354667;32;34326;-67
2022/12/28 04:49:46;;;;;;;;;;;;;;;6.67;44.12;100753.09;4356250;32;34298;-66
2022/12/28 04:52:13;;;;;;;;;;;;;;;6.84;43.55;100743.53;4358994;32;33401;-65
2022/12/28 04:54:41;;;;;;;;;;;;;;;7.07;42.78;100739.88;4358506;32;32972;-66
2022/12/28 04:57:08;;;;;;;;;;;;;;;7.09;42.63;100748.66;4358125;32;33769;-66
2022/12/28 04:59:35;;;;;;;;;;;;;;;7.05;42.64;100749.72;4357051;32;33436;-68
2022/12/28 05:02:03;;;;;;;;;;;;;;;6.98;42.90;100754.47;4356167;32;33339;-67
2022/12/28 05:04:30;;;;;;;;;;;;;;;7.02;42.75;100764.03;4360480;32;34274;-67
2022/12/28 05:06:57;;;;;;;;;;;;;;;6.88;43.25;100754.00;4355629;32;34857;-67
2022/12/28 05:09:25;;;;;;;;;;;;;;;6.59;43.49;100754.38;4356598;32;35164;-67
2022/12/28 05:11:52;;;;;;;;;;;;;;;6.58;43.83;100752.63;4359819;32;34475;-67
2022/12/28 05:14:19;;;;;;;;;;;;;;;6.33;44.45;100740.38;4349661;32;35002;-67
2022/12/28 05:16:48;;;;;;;;;;;;;;;6.45;44.13;100754.94;4360349;32;34374;-67
2022/12/28 05:19:16;;;;;;;;;;;;;;;6.63;43.89;100750.66;4360766;32;34200;-67
2022/12/28 05:21:44;;;;;;;;;;;;;;;6.64;43.99;100753.22;4358351;32;33268;-66
2022/12/28 05:24:11;;;;;;;;;;;;;;;6.74;43.61;100749.28;4359621;32;34158;-66
2022/12/28 05:26:38;;;;;;;;;;;;;;;6.51;44.20;100760.88;4355818;32;34315;-66
2022/12/28 05:29:06;;;;;;;;;;;;;;;6.57;43.85;100762.41;4358200;32;35055;-67
2022/12/28 05:31:33;;;;;;;;;;;;;;;6.23;44.90;100749.66;4360452;32;32083;-67
2022/12/28 05:34:00;;;;;;;;;;;;;;;6.56;43.92;100762.50;4361072;32;34307;-67
2022/12/28 05:36:27;;;;;;;;;;;;;;;6.62;43.89;100749.78;4360158;32;35141;-67
2022/12/28 05:38:55;;;;;;;;;;;;;;;6.79;43.32;100742.88;4359303;32;33835;-67
2022/12/28 05:41:23;;;;;;;;;;;;;;;6.63;43.58;100746.19;4359729;32;33127;-66
2022/12/28 05:43:51;;;;;;;;;;;;;;;6.44;44.02;100753.22;4354069;32;34943;-67
2022/12/28 05:46:20;;;;;;;;;;;;;;;6.12;44.95;100744.75;4359220;32;35445;-66
2022/12/28 05:48:47;;;;;;;;;;;;;;;5.20;47.12;100748.28;4359877;32;34743;-67
2022/12/28 05:51:16;;;;;;;;;;;;;;;6.11;45.27;100751.03;4358982;32;33568;-66
2022/12/28 05:53:43;;;;;;;;;;;;;;;6.01;46.95;100752.31;4360057;32;35234;-66
2022/12/28 05:56:11;;;;;;;;;;;;;;;5.99;47.14;100740.88;4359625;32;34184;-66
2022/12/28 05:58:45;;;;;;;;;;;;;;;6.10;46.73;100741.31;4359884;32;34416;-66
2022/12/28 06:01:13;;;;;;;;;;;;;;;6.21;46.97;100752.37;4357766;32;33595;-64
2022/12/28 06:03:41;;;;;;;;;;;;;;;5.88;47.99;100761.69;4357738;32;33915;-66
2022/12/28 06:06:13;;;;;;;;;;;;;;;6.00;47.93;100758.53;4359738;32;34560;-65
2022/12/28 06:08:40;;;;;;;;;;;;;;;6.19;47.78;100753.34;4353165;32;34029;-65
2022/12/28 06:11:09;;;;;;;;;;;;;;;6.36;47.18;100760.66;4360052;32;34590;-67
2022/12/28 06:13:36;;;;;;;;;;;;;;;6.43;46.02;100756.81;4360850;32;35207;-65
2022/12/28 06:16:04;;;;;;;;;;;;;;;6.38;45.50;100748.16;4363432;32;35293;-65
2022/12/28 06:18:35;;;;;;;;;;;;;;;6.61;44.50;100753.38;4361060;32;34981;-68
2022/12/28 06:21:06;;;;;;;;;;;;;;;6.43;46.37;100754.16;4362205;32;33326;-65
2022/12/28 06:23:33;;;;;;;;;;;;;;;6.29;47.29;100754.69;4360920;32;34040;-67
2022/12/28 06:26:01;;;;;;;;;;;;;;;6.54;46.19;100760.75;4361178;32;35497;-67
2022/12/28 06:28:28;;;;;;;;;;;;;;;6.72;45.17;100752.94;4360675;32;33181;-67
2022/12/28 06:31:03;;;;;;;;;;;;;;;6.68;44.31;100754.00;4355084;32;33268;-67
2022/12/28 06:33:30;;;;;;;;;;;;;;;6.59;44.89;100751.72;4357994;32;33892;-67
2022/12/28 06:35:57;;;;;;;;;;;;;;;6.71;44.63;100757.38;4356849;32;33989;-66
2022/12/28 06:38:26;;;;;;;;;;;;;;;6.77;44.87;100761.56;4352358;32;35850;-66
2022/12/28 06:40:53;;;;;;;;;;;;;;;6.90;43.40;100767.22;4356022;32;33207;-65
2022/12/28 06:43:40;;;;;;;;;;;;;;;6.71;44.96;100762.72;4357848;32;35008;-66
2022/12/28 06:46:08;;;;;;;;;;;;;;;6.75;43.55;100758.97;4361293;32;32996;-67
2022/12/28 06:48:36;;;;;;;;;;;;;;;6.84;43.87;100763.06;4360919;32;34459;-65
2022/12/28 06:51:04;;;;;;;;;;;;;;;7.32;43.27;100761.81;4352759;32;32214;-65
2022/12/28 06:53:33;;;;;;;;;;;;;;;7.86;42.21;100761.97;4354232;32;34336;-66
2022/12/28 06:56:04;;;;;;;;;;;;;;;8.45;41.23;100763.59;4358300;32;33903;-66
2022/12/28 06:58:32;;;;;;;;;;;;;;;9.28;39.39;100760.19;4359776;32;34045;-65
2022/12/28 07:01:09;;;;;;;;;;;;;;;9.96;38.48;100757.38;4359374;32;31834;-65
2022/12/28 07:03:37;;;;;;;;;;;;;;;10.15;38.09;100767.03;4359109;32;34020;-65
2022/12/28 07:06:04;;;;;;;;;;;;;;;10.02;37.58;100753.50;4363073;32;32973;-65
2022/12/28 07:08:31;;;;;;;;;;;;;;;10.56;36.70;100761.12;4343573;32;34441;-66
2022/12/28 07:11:03;;;;;;;;;;;;;;;11.18;35.42;100753.84;4361694;32;33665;-66
2022/12/28 07:13:30;;;;;;;;;;;;;;;11.46;35.56;100754.78;4359755;32;34555;-67
2022/12/28 07:16:00;;;;;;;;;;;;;;;11.86;33.76;100759.41;4360110;32;34196;-66
2022/12/28 07:18:27;;;;;;;;;;;;;;;11.50;34.01;100757.22;4361491;32;35228;-65
2022/12/28 07:20:58;;;;;;;;;;;;;;;11.02;35.25;100753.91;4360921;32;33241;-66
2022/12/28 07:23:28;;;;;;;;;;;;;;;11.52;34.63;100754.41;4360204;32;34235;-65
2022/12/28 07:25:57;;;;;;;;;;;;;;;12.34;33.06;100750.94;4360203;32;33042;-65
2022/12/28 07:28:24;;;;;;;;;;;;;;;11.99;33.52;100747.88;4360602;32;35290;-65
2022/12/28 07:30:51;;;;;;;;;;;;;;;12.48;32.95;100741.97;4360427;32;33611;-66
2022/12/28 07:33:19;;;;;;;;;;;;;;;13.16;32.46;100741.78;4361505;32;34140;-65
2022/12/28 07:35:46;;;;;;;;;;;;;;;13.47;32.18;100735.13;4358911;32;34222;-65
2022/12/28 07:38:13;;;;;;;;;;;;;;;14.55;30.00;100744.31;4359161;32;34837;-65
2022/12/28 07:40:47;;;;;;;;;;;;;;;15.76;27.54;100728.59;4356112;32;33776;-66
2022/12/28 07:43:14;;;;;;;;;;;;;;;16.54;26.83;100730.25;4362742;32;34117;-65
2022/12/28 07:45:42;;;;;;;;;;;;;;;16.52;26.57;100741.19;4360306;32;35369;-66
2022/12/28 07:48:09;;;;;;;;;;;;;;;16.91;26.12;100740.66;4360335;32;34507;-67
2022/12/28 07:50:36;;;;;;;;;;;;;;;17.25;25.59;100741.34;4360713;32;33685;-67
2022/12/28 07:53:04;;;;;;;;;;;;;;;16.48;26.86;100736.19;4361287;32;33648;-66
2022/12/28 07:55:31;;;;;;;;;;;;;;;15.09;28.65;100748.28;4360109;32;33533;-65
2022/12/28 07:57:59;;;;;;;;;;;;;;;15.06;28.83;100746.69;4359505;32;34452;-65
2022/12/28 08:00:26;;;;;;;;;;;;;;;15.02;28.69;100755.09;4360295;32;33312;-67
2022/12/28 08:02:54;;;;;;;;;;;;;;;14.98;29.00;100761.72;4358367;32;34265;-66
2022/12/28 08:05:21;;;;;;;;;;;;;;;15.27;28.15;100764.84;4358436;32;34531;-66
2022/12/28 08:07:48;;;;;;;;;;;;;;;15.10;29.29;100767.03;4358546;32;35050;-66
2022/12/28 08:10:16;;;;;;;;;;;;;;;14.88;28.66;100764.25;4359677;32;33466;-66
2022/12/28 08:12:43;;;;;;;;;;;;;;;14.57;29.33;100758.50;4361173;32;35647;-65
2022/12/28 08:15:10;;;;;;;;;;;;;;;14.50;29.37;100754.53;4359571;32;35276;-65
2022/12/28 08:17:38;;;;;;;;;;;;;;;14.54;29.55;100755.19;4361426;32;34345;-66
2022/12/28 08:20:05;;;;;;;;;;;;;;;14.93;29.21;100755.81;4359822;32;33344;-66
2022/12/28 08:22:32;;;;;;;;;;;;;;;15.12;28.90;100751.59;4364502;32;32755;-66
2022/12/28 08:25:00;;;;;;;;;;;;;;;15.06;29.70;100751.22;4354012;32;33103;-67
2022/12/28 08:27:27;;;;;;;;;;;;;;;15.47;29.72;100741.69;4355382;32;35242;-66
2022/12/28 08:29:59;;;;;;;;;;;;;;;15.88;29.29;100735.69;4360174;32;33584;-66
2022/12/28 08:32:27;;;;;;;;;;;;;;;16.12;28.88;100727.44;4359078;32;33751;-65
2022/12/28 08:34:54;;;;;;;;;;;;;;;16.31;28.48;100729.50;4360564;32;35790;-66
2022/12/28 08:37:21;;;;;;;;;;;;;;;16.61;28.26;100736.84;4355938;32;34994;-65
2022/12/28 08:39:49;;;;;;;;;;;;;;;16.49;28.26;100737.88;4359789;32;36026;-66
2022/12/28 08:42:16;;;;;;;;;;;;;;;16.06;28.35;100741.44;4360629;32;34071;-66
2022/12/28 08:44:43;;;;;;;;;;;;;;;15.92;29.08;100744.41;4360307;32;32937;-64
2022/12/28 08:47:10;;;;;;;;;;;;;;;16.30;28.34;100744.81;4356290;32;34440;-65
2022/12/28 08:49:38;;;;;;;;;;;;;;;16.10;29.02;100753.72;4360407;32;34335;-65
2022/12/28 08:52:06;;;;;;;;;;;;;;;15.93;28.82;100746.16;4360464;32;34232;-65
2022/12/28 08:54:33;;;;;;;;;;;;;;;15.28;29.82;100747.69;4359149;32;34107;-65
2022/12/28 08:57:01;;;;;;;;;;;;;;;14.95;30.74;100743.09;4353536;32;35465;-67
2022/12/28 08:59:28;;;;;;;;;;;;;;;15.03;30.36;100754.16;4370204;32;32973;-66
2022/12/28 09:01:55;;;;;;;;;;;;;;;14.73;31.04;100747.41;4357346;32;32611;-66
2022/12/28 09:04:23;;;;;;;;;;;;;;;15.42;30.40;100757.41;4359454;32;35436;-67
2022/12/28 09:06:50;;;;;;;;;;;;;;;16.33;29.61;100749.09;4357129;32;34454;-65
2022/12/28 09:09:18;;;;;;;;;;;;;;;16.34;29.32;100747.25;4358203;32;34642;-67
2022/12/28 09:11:46;;;;;;;;;;;;;;;17.27;27.66;100746.59;4346101;32;33023;-66
2022/12/28 09:14:13;;;;;;;;;;;;;;;17.60;26.99;100735.53;4360899;32;33942;-66
2022/12/28 09:16:48;;;;;;;;;;;;;;;16.25;29.02;100736.25;4356095;32;34395;-66
2022/12/28 09:19:15;;;;;;;;;;;;;;;15.31;31.35;100728.56;4355726;32;33055;-67
2022/12/28 09:21:47;;;;;;;;;;;;;;;14.61;32.15;100722.28;4359350;32;35373;-67
2022/12/28 09:24:15;;;;;;;;;;;;;;;15.09;32.11;100722.19;4360762;32;34576;-67
2022/12/28 09:26:42;;;;;;;;;;;;;;;15.06;31.77;100719.72;4356304;32;34314;-66
2022/12/28 09:29:10;;;;;;;;;;;;;;;14.68;32.83;100714.59;4356596;32;34682;-65
2022/12/28 09:31:39;;;;;;;;;;;;;;;14.48;32.62;100713.41;4354348;32;35194;-65
2022/12/28 09:34:07;;;;;;;;;;;;;;;14.05;33.60;100704.97;4358139;32;34477;-67
2022/12/28 09:36:54;;;;;;;;;;;;;;;13.86;33.27;100700.06;4351043;32;34629;-66
2022/12/28 09:39:23;;;;;;;;;;;;;;;13.40;34.73;100704.25;4359374;32;33419;-66
2022/12/28 09:42:01;;;;;;;;;;;;;;;13.77;34.26;100703.44;4357958;32;35652;-66
2022/12/28 09:44:35;;;;;;;;;;;;;;;14.24;33.67;100707.16;4348658;32;34573;-66
2022/12/28 09:47:11;;;;;;;;;;;;;;;14.86;33.28;100710.50;4356477;32;34499;-65
2022/12/28 09:49:57;;;;;;;;;;;;;;;15.01;32.11;100708.41;4354739;32;34664;-65
2022/12/28 09:52:27;;;;;;;;;;;;;;;15.36;31.80;100694.00;4344754;32;32458;-67
2022/12/28 09:54:55;;;;;;;;;;;;;;;15.11;31.89;100695.06;4374852;32;34315;-67
2022/12/28 09:57:22;;;;;;;;;;;;;;;15.60;31.13;100686.66;4344230;32;35439;-67
2022/12/28 09:59:50;;;;;;;;;;;;;;;15.61;30.94;100676.69;4350511;32;31948;-65
2022/12/28 10:02:28;;;;;;;;;;;;;;;16.55;29.33;100677.91;4340482;32;34144;-67
2022/12/28 10:04:56;;;;;;;;;;;;;;;17.08;28.20;100669.78;4356670;32;33755;-66
2022/12/28 10:07:23;;;;;;;;;;;;;;;16.83;28.55;100665.62;4348488;32;34595;-66
2022/12/28 10:09:50;;;;;;;;;;;;;;;16.72;29.47;100658.41;4360273;32;36123;-66
2022/12/28 10:12:23;;;;;;;;;;;;;;;15.80;29.80;100655.34;4361271;32;34358;-67
2022/12/28 10:14:51;;;;;;;;;;;;;;;17.15;28.41;100652.00;4357483;32;34184;-67
2022/12/28 10:17:19;;;;;;;;;;;;;;;17.87;26.97;100648.28;4343433;32;34801;-68
2022/12/28 10:19:47;;;;;;;;;;;;;;;18.88;25.66;100642.59;4362363;32;33569;-67
2022/12/28 10:22:18;;;;;;;;;;;;;;;19.10;25.17;100644.97;4359744;32;34069;-67
2022/12/28 10:24:45;;;;;;;;;;;;;;;20.15;24.24;100649.12;4353741;32;34790;-66
2022/12/28 10:27:19;;;;;;;;;;;;;;;20.14;21.93;100652.84;4353056;32;34771;-65
2022/12/28 10:29:46;;;;;;;;;;;;;;;19.93;22.32;100643.13;4355722;32;34272;-66
2022/12/28 10:32:14;;;;;;;;;;;;;;;20.69;21.82;100639.94;4346767;32;32741;-66
2022/12/28 10:34:52;;;;;;;;;;;;;;;21.77;20.25;100645.84;4360868;32;35789;-66
2022/12/28 10:37:19;;;;;;;;;;;;;;;21.26;20.57;100644.06;4359782;32;34660;-66
2022/12/28 10:39:48;;;;;;;;;;;;;;;18.94;22.23;100652.84;4360901;32;33405;-69
2022/12/28 10:42:25;;;;;;;;;;;;;;;18.28;23.14;100643.63;4357017;32;34174;-66
2022/12/28 10:44:53;;;;;;;;;;;;;;;18.50;23.11;100647.03;4351196;32;35870;-66
2022/12/28 10:47:28;;;;;;;;;;;;;;;17.70;24.21;100649.78;4360854;32;34447;-66
2022/12/28 10:49:56;;;;;;;;;;;;;;;16.99;25.53;100643.53;4364111;32;34770;-66
2022/12/28 10:52:49;;;;;;;;;;;;;;;16.15;27.06;100648.03;4354457;32;33786;-66
2022/12/28 10:55:24;;;;;;;;;;;;;;;13.44;30.62;100656.50;4348754;32;35530;-68
2022/12/28 10:57:52;;;;;;;;;;;;;;;13.44;31.22;100659.19;4360209;32;34138;-66
2022/12/28 11:00:39;;;;;;;;;;;;;;;12.38;32.37;100655.81;4354073;32;33337;-65
2022/12/28 11:03:17;;;;;;;;;;;;;;;13.21;31.68;100660.81;4360891;32;34301;-69
2022/12/28 11:05:45;;;;;;;;;;;;;;;12.89;32.41;100660.37;4356749;32;32673;-66
2022/12/28 11:08:23;;;;;;;;;;;;;;;12.38;33.76;100655.81;4358957;32;35345;-65
2022/12/28 11:10:55;;;;;;;;;;;;;;;12.37;33.81;100650.56;4346468;32;31990;-67
2022/12/28 11:13:22;;;;;;;;;;;;;;;11.49;35.02;100650.06;4362186;32;34250;-65
2022/12/28 11:15:50;;;;;;;;;;;;;;;10.87;36.90;100643.19;4358005;32;35161;-65
2022/12/28 11:18:17;;;;;;;;;;;;;;;11.04;36.73;100642.12;4359655;32;34584;-66
2022/12/28 11:20:46;;;;;;;;;;;;;;;10.91;37.14;100631.34;4358078;32;33644;-68
2022/12/28 11:23:21;;;;;;;;;;;;;;;10.89;37.74;100632.41;4357565;32;34323;-66
2022/12/28 11:25:48;;;;;;;;;;;;;;;12.80;34.93;100627.81;4359756;32;35405;-66
2022/12/28 11:28:17;;;;;;;;;;;;;;;14.11;32.18;100627.28;4346113;32;34325;-66
2022/12/28 11:30:45;;;;;;;;;;;;;;;15.57;30.51;100622.12;4358443;32;33750;-65
2022/12/28 11:33:25;;;;;;;;;;;;;;;15.58;29.30;100617.59;4356710;32;34476;-65
2022/12/28 11:35:52;;;;;;;;;;;;;;;16.02;29.11;100611.25;4356717;32;32320;-65
2022/12/28 11:38:35;;;;;;;;;;;;;;;15.78;28.89;100606.03;4357108;32;33726;-66
2022/12/28 11:41:03;;;;;;;;;;;;;;;15.35;29.31;100592.50;4360210;32;33602;-68
2022/12/28 11:43:31;;;;;;;;;;;;;;;13.60;31.44;100597.91;4343008;32;33961;-67
2022/12/28 11:46:17;;;;;;;;;;;;;;;13.56;31.99;100598.28;4355147;32;35193;-67
2022/12/28 11:48:58;;;;;;;;;;;;;;;11.40;35.62;100598.78;4345634;32;33939;-65
2022/12/28 11:51:26;;;;;;;;;;;;;;;12.26;34.96;100594.91;4359807;32;32980;-65
2022/12/28 11:54:06;;;;;;;;;;;;;;;11.88;35.13;100585.81;4355789;32;33971;-66
2022/12/28 11:56:42;;;;;;;;;;;;;;;12.57;34.67;100572.16;4358968;32;33746;-67
2022/12/28 11:59:25;;;;;;;;;;;;;;;10.11;38.42;100579.09;4356830;32;34473;-65
2022/12/28 12:01:54;;;;;;;;;;;;;;;10.85;37.55;100574.59;4359559;32;33403;-65
2022/12/28 12:04:29;;;;;;;;;;;;;;;11.10;37.06;100568.56;4356908;32;32856;-65
2022/12/28 12:06:56;;;;;;;;;;;;;;;10.88;37.16;100575.31;4359673;32;32608;-65
2022/12/28 12:09:28;;;;;;;;;;;;;;;10.12;39.52;100570.13;4357481;32;35269;-68
2022/12/28 12:11:58;;;;;;;;;;;;;;;10.31;38.94;100564.56;4357528;32;33678;-66
2022/12/28 12:14:27;;;;;;;;;;;;;;;10.29;39.32;100561.09;4356152;32;34391;-65
2022/12/28 12:17:01;;;;;;;;;;;;;;;9.99;39.92;100556.63;4355218;32;34480;-65
2022/12/28 12:19:31;;;;;;;;;;;;;;;9.59;41.74;100544.72;4355836;32;33269;-65
2022/12/28 12:22:00;;;;;;;;;;;;;;;10.45;39.59;100544.97;4348244;32;32283;-67
2022/12/28 12:24:53;;;;;;;;;;;;;;;8.56;43.19;100539.75;4344515;32;32617;-65
2022/12/28 12:27:31;;;;;;;;;;;;;;;8.85;43.26;100534.66;4331644;32;34197;-67
2022/12/28 12:29:59;;;;;;;;;;;;;;;9.66;41.74;100532.72;4336739;32;35338;-67
2022/12/28 12:32:29;;;;;;;;;;;;;;;9.15;42.92;100531.22;4346741;32;33570;-65
2022/12/28 12:34:59;;;;;;;;;;;;;;;9.49;43.38;100525.66;4347826;32;33095;-65
2022/12/28 12:37:30;;;;;;;;;;;;;;;10.19;41.25;100519.78;4359325;32;33662;-65
2022/12/28 12:40:12;;;;;;;;;;;;;;;10.59;40.16;100518.19;4361050;32;34238;-65
2022/12/28 12:42:40;;;;;;;;;;;;;;;11.02;39.71;100514.63;4356388;32;33379;-66
2022/12/28 12:45:10;;;;;;;;;;;;;;;11.20;39.61;100521.47;4359101;32;33951;-65
2022/12/28 12:47:56;;;;;;;;;;;;;;;11.05;39.79;100517.97;4356927;32;34823;-67
2022/12/28 12:50:29;;;;;;;;;;;;;;;11.50;38.66;100509.72;4359669;32;36486;-65
2022/12/28 12:53:03;;;;;;;;;;;;;;;11.40;38.74;100507.63;4358356;32;32587;-66
2022/12/28 12:55:34;;;;;;;;;;;;;;;10.61;40.12;100507.41;4359075;32;34695;-65
2022/12/28 12:58:02;;;;;;;;;;;;;;;11.05;39.21;100509.94;4350275;32;33568;-66
2022/12/28 13:00:31;;;;;;;;;;;;;;;11.87;38.17;100502.75;4357690;32;34619;-66
2022/12/28 13:03:18;;;;;;;;;;;;;;;11.62;38.16;100499.03;4353920;32;33881;-66
2022/12/28 13:05:53;;;;;;;;;;;;;;;11.45;38.32;100495.75;4343008;32;33446;-65
2022/12/28 13:08:22;;;;;;;;;;;;;;;11.59;38.16;100484.97;4359520;32;34274;-66
2022/12/28 13:10:49;;;;;;;;;;;;;;;11.33;37.85;100490.25;4355140;32;34250;-66
2022/12/28 13:13:17;;;;;;;;;;;;;;;11.15;37.96;100488.75;4358727;32;34600;-65
2022/12/28 13:15:44;;;;;;;;;;;;;;;11.89;37.07;100487.41;4355386;32;34098;-65
2022/12/28 13:18:16;;;;;;;;;;;;;;;11.15;38.83;100486.09;4352633;32;34638;-65
2022/12/28 13:21:04;;;;;;;;;;;;;;;9.98;40.76;100488.03;4354832;32;34319;-65
2022/12/28 13:23:42;;;;;;;;;;;;;;;11.15;38.92;100481.59;4356578;32;32381;-65
2022/12/28 13:26:10;;;;;;;;;;;;;;;11.15;38.28;100464.66;4357434;32;32819;-65